createdAt,value
2023-10-26T00:00:55.799Z,98930.94
2023-10-26T00:03:58.767Z,98935.84
2023-10-26T00:07:02.107Z,98946.09
2023-10-26T00:10:05.049Z,98932.06
2023-10-26T00:13:08.882Z,98924.31
2023-10-26T00:16:11.517Z,98899.66
2023-10-26T00:19:14.041Z,98904.78
2023-10-26T00:22:16.539Z,98891.81
2023-10-26T00:25:19.046Z,98893.31
2023-10-26T00:28:21.673Z,98888.31
2023-10-26T00:31:24.434Z,98887.78
2023-10-26T00:34:27.678Z,98886.25
2023-10-26T00:37:30.147Z,98889.53
2023-10-26T00:40:32.585Z,98889.88
2023-10-26T00:43:35.473Z,98894.75
2023-10-26T00:46:38.027Z,98889.25
2023-10-26T00:49:44.010Z,98890.56
2023-10-26T00:52:47.585Z,98882.03
2023-10-26T00:55:52.438Z,98876.25
2023-10-26T00:58:56.335Z,98871.50
2023-10-26T01:01:59.687Z,98881.69
2023-10-26T01:05:02.185Z,98879.06
2023-10-26T01:08:05.312Z,98885.06
2023-10-26T01:11:07.827Z,98881.59
2023-10-26T01:14:11.945Z,98870.78
2023-10-26T01:17:14.841Z,98876.25
2023-10-26T01:20:19.316Z,98864.63
2023-10-26T01:23:21.866Z,98847.13
2023-10-26T01:26:24.871Z,98850.03
2023-10-26T01:29:27.337Z,98847.91
2023-10-26T01:32:29.813Z,98836.19
2023-10-26T01:35:45.860Z,98854.13
2023-10-26T01:38:48.423Z,98830.69
2023-10-26T01:41:51.654Z,98847.22
2023-10-26T01:44:54.129Z,98825.28
2023-10-26T01:47:56.901Z,98839.66
2023-10-26T01:50:59.360Z,98843.69
2023-10-26T01:54:01.843Z,98847.47
2023-10-26T01:57:04.549Z,98828.09
2023-10-26T02:00:07.550Z,98836.91
2023-10-26T02:03:14.702Z,98830.25
2023-10-26T02:06:17.440Z,98820.13
2023-10-26T02:09:19.938Z,98815.94
2023-10-26T02:12:22.465Z,98805.94
2023-10-26T02:15:25.293Z,98809.13
2023-10-26T02:18:27.820Z,98806.47
2023-10-26T02:21:30.331Z,98808.41
2023-10-26T02:24:32.787Z,98805.75
2023-10-26T02:27:35.893Z,98799.28
2023-10-26T02:30:38.350Z,98806.78
2023-10-26T02:33:40.806Z,98813.53
2023-10-26T02:36:43.281Z,98802.94
2023-10-26T02:39:46.222Z,98801.41
2023-10-26T02:42:49.582Z,98800.78
2023-10-26T02:46:06.202Z,98804.53
2023-10-26T02:49:08.752Z,98798.78
2023-10-26T02:52:11.120Z,98794.91
2023-10-26T02:55:13.614Z,98798.00
2023-10-26T02:58:16.009Z,98791.97
2023-10-26T03:01:18.434Z,98796.22
2023-10-26T03:04:20.975Z,98796.75
2023-10-26T03:07:24.116Z,98799.00
2023-10-26T03:10:27.214Z,98786.84
2023-10-26T03:13:29.625Z,98783.47
2023-10-26T03:16:33.668Z,98788.53
2023-10-26T03:19:36.184Z,98797.84
2023-10-26T03:22:38.639Z,98801.09
2023-10-26T03:25:42.142Z,98787.66
2023-10-26T03:28:44.712Z,98797.09
2023-10-26T03:31:47.142Z,98793.81
2023-10-26T03:34:53.646Z,98791.50
2023-10-26T03:37:56.120Z,98788.84
2023-10-26T03:40:58.567Z,98797.00
2023-10-26T03:44:01.404Z,98784.13
2023-10-26T03:47:03.883Z,98784.50
2023-10-26T03:50:06.766Z,98776.31
2023-10-26T03:53:09.218Z,98772.88
2023-10-26T03:56:11.645Z,98771.09
2023-10-26T03:59:14.013Z,98764.00
2023-10-26T04:02:16.813Z,98769.59
2023-10-26T04:05:19.327Z,98767.94
2023-10-26T04:08:21.778Z,98765.81
2023-10-26T04:11:25.737Z,98777.31
2023-10-26T04:14:28.170Z,98762.72
2023-10-26T04:17:30.643Z,98768.91
2023-10-26T04:20:33.140Z,98766.78
2023-10-26T04:23:35.568Z,98752.56
2023-10-26T04:26:37.969Z,98763.03
2023-10-26T04:29:40.373Z,98758.38
2023-10-26T04:32:43.715Z,98761.28
2023-10-26T04:35:48.013Z,98759.59
2023-10-26T04:38:51.555Z,98763.34
2023-10-26T04:41:54.021Z,98764.13
2023-10-26T04:44:56.583Z,98763.72
2023-10-26T04:48:00.109Z,98764.97
2023-10-26T04:51:02.928Z,98762.00
2023-10-26T04:54:05.533Z,98748.94
2023-10-26T04:57:07.996Z,98744.19
2023-10-26T05:00:11.445Z,98750.84
2023-10-26T05:03:13.951Z,98753.69
2023-10-26T05:06:16.675Z,98745.19
2023-10-26T05:09:19.271Z,98745.94
2023-10-26T05:12:21.809Z,98762.06
2023-10-26T05:15:24.430Z,98754.59
2023-10-26T05:18:27.037Z,98761.41
2023-10-26T05:21:29.695Z,98748.94
2023-10-26T05:24:32.394Z,98749.78
2023-10-26T05:27:37.006Z,98748.53
2023-10-26T05:30:40.078Z,98762.66
2023-10-26T05:33:43.363Z,98772.78
2023-10-26T05:36:45.780Z,98773.22
2023-10-26T05:39:48.341Z,98773.75
2023-10-26T05:42:51.022Z,98771.88
2023-10-26T05:45:53.819Z,98773.91
2023-10-26T05:48:56.260Z,98775.00
2023-10-26T05:52:01.945Z,98775.38
2023-10-26T05:55:04.892Z,98785.31
2023-10-26T05:58:09.980Z,98780.94
2023-10-26T06:01:12.420Z,98789.31
2023-10-26T06:04:15.028Z,98774.47
2023-10-26T06:07:18.593Z,98779.25
2023-10-26T06:10:21.001Z,98783.97
2023-10-26T06:13:23.392Z,98779.41
2023-10-26T06:16:25.863Z,98775.34
2023-10-26T06:19:29.094Z,98779.03
2023-10-26T06:22:31.548Z,98783.84
2023-10-26T06:25:40.215Z,98781.59
2023-10-26T06:28:42.623Z,98780.31
2023-10-26T06:31:45.722Z,98778.38
2023-10-26T06:34:48.142Z,98767.19
2023-10-26T06:37:50.604Z,98768.25
2023-10-26T06:40:53.025Z,98770.06
2023-10-26T06:43:57.112Z,98761.63
2023-10-26T06:46:59.586Z,98782.34
2023-10-26T06:50:02.035Z,98783.94
2023-10-26T06:53:04.518Z,98784.72
2023-10-26T06:56:13.714Z,98786.25
2023-10-26T06:59:16.171Z,98790.53
2023-10-26T07:02:18.649Z,98794.41
2023-10-26T07:05:21.110Z,98785.84
2023-10-26T07:08:23.865Z,98803.25
2023-10-26T07:11:26.838Z,98802.06
2023-10-26T07:14:30.691Z,98801.06
2023-10-26T07:17:33.175Z,98784.69
2023-10-26T07:20:38.243Z,98785.13
2023-10-26T07:23:40.677Z,98791.00
2023-10-26T07:26:43.130Z,98797.59
2023-10-26T07:29:45.770Z,98781.72
2023-10-26T07:32:48.456Z,98776.75
2023-10-26T07:35:53.103Z,98794.00
2023-10-26T07:39:46.674Z,98791.50
2023-10-26T07:42:17.929Z,98791.88
2023-10-26T07:45:20.433Z,98801.63
2023-10-26T07:48:22.942Z,98794.78
2023-10-26T07:51:25.386Z,98794.50
2023-10-26T07:54:27.969Z,98799.38
2023-10-26T07:57:30.758Z,98797.63
2023-10-26T08:00:33.276Z,98787.06
2023-10-26T08:03:35.815Z,98786.72
2023-10-26T08:06:38.222Z,98784.91
2023-10-26T08:09:40.703Z,98786.88
2023-10-26T08:12:43.165Z,98778.38
2023-10-26T08:16:09.980Z,98784.91
2023-10-26T08:19:08.132Z,98781.06
2023-10-26T08:22:11.835Z,98787.25
2023-10-26T08:25:18.891Z,98785.41
2023-10-26T08:28:24.340Z,98789.91
2023-10-26T08:31:27.158Z,98785.47
2023-10-26T08:34:29.785Z,98762.66
2023-10-26T08:37:32.232Z,98761.41
2023-10-26T08:40:34.726Z,98760.66
2023-10-26T08:43:37.679Z,98765.03
2023-10-26T08:46:41.842Z,98786.97
2023-10-26T08:49:50.285Z,98779.47
2023-10-26T08:52:58.777Z,98776.94
2023-10-26T08:56:01.761Z,98783.59
2023-10-26T08:59:04.727Z,98777.78
2023-10-26T09:02:07.244Z,98761.09
2023-10-26T09:05:11.727Z,98766.94
2023-10-26T09:08:18.602Z,98770.94
2023-10-26T09:11:23.622Z,98768.00
2023-10-26T09:14:26.434Z,98759.06
2023-10-26T09:17:30.973Z,98769.63
2023-10-26T09:20:33.927Z,98772.09
2023-10-26T09:23:38.530Z,98765.78
2023-10-26T09:26:41.070Z,98764.56
2023-10-26T09:29:44.568Z,98770.44
2023-10-26T09:32:49.435Z,98780.50
2023-10-26T09:35:52.487Z,98776.28
2023-10-26T09:38:56.491Z,98771.81
2023-10-26T09:42:00.376Z,98781.41
2023-10-26T09:45:02.852Z,98776.28
2023-10-26T09:48:06.432Z,98772.06
2023-10-26T09:51:11.676Z,98778.91
2023-10-26T09:54:15.208Z,98779.44
2023-10-26T09:57:25.323Z,98777.69
2023-10-26T10:00:35.688Z,98776.53
2023-10-26T10:03:45.359Z,98766.59
2023-10-26T10:07:02.044Z,98762.84
2023-10-26T10:10:07.017Z,98764.75
2023-10-26T10:13:09.537Z,98773.44
2023-10-26T10:16:37.153Z,98764.06
2023-10-26T10:19:44.594Z,98765.25
2023-10-26T10:22:54.821Z,98771.00
2023-10-26T10:26:08.225Z,98769.19
2023-10-26T10:29:20.527Z,98757.00
2023-10-26T10:32:50.745Z,98763.09
2023-10-26T10:36:03.667Z,98749.31
2023-10-26T10:39:23.700Z,98752.38
2023-10-26T10:42:27.193Z,98748.56
2023-10-26T10:48:55.360Z,98746.28
2023-10-26T10:51:58.647Z,98741.19
2023-10-26T10:55:05.288Z,98751.69
2023-10-26T10:58:08.374Z,98739.91
2023-10-26T11:01:10.923Z,98732.75
2023-10-26T11:04:14.754Z,98726.84
2023-10-26T11:07:17.607Z,98728.59
2023-10-26T11:10:20.455Z,98726.56
2023-10-26T11:13:23.532Z,98731.34
2023-10-26T11:16:26.502Z,98731.22
2023-10-26T11:19:28.924Z,98736.69
2023-10-26T11:22:31.635Z,98732.81
2023-10-26T11:25:35.419Z,98727.09
2023-10-26T11:28:37.939Z,98735.03
2023-10-26T11:31:42.723Z,98738.31
2023-10-26T11:35:11.975Z,98754.44
2023-10-26T11:38:14.394Z,98748.63
2023-10-26T11:41:26.850Z,98765.00
2023-10-26T11:44:31.088Z,98770.88
2023-10-26T11:47:51.687Z,98776.53
2023-10-26T11:50:54.494Z,98756.97
2023-10-26T11:53:58.253Z,98770.13
2023-10-26T11:57:00.803Z,98780.44
2023-10-26T12:00:07.213Z,98783.59
2023-10-26T12:03:15.151Z,98766.38
2023-10-26T12:06:17.578Z,98761.72
2023-10-26T12:09:20.233Z,98758.09
2023-10-26T12:12:22.672Z,98754.03
2023-10-26T12:15:25.240Z,98756.59
2023-10-26T12:18:28.275Z,98737.66
2023-10-26T12:21:30.857Z,98740.63
2023-10-26T12:24:34.246Z,98737.03
2023-10-26T12:28:20.645Z,98718.94
2023-10-26T12:30:59.128Z,98722.63
2023-10-26T12:34:01.795Z,98732.25
2023-10-26T12:37:05.422Z,98724.06
2023-10-26T12:40:09.459Z,98726.31
2023-10-26T12:43:11.949Z,98724.06
2023-10-26T12:46:14.445Z,98720.69
2023-10-26T12:49:16.922Z,98731.59
2023-10-26T12:52:19.359Z,98729.16
2023-10-26T12:55:24.784Z,98724.56
2023-10-26T12:58:27.282Z,98717.41
2023-10-26T13:01:29.759Z,98720.69
2023-10-26T13:04:35.129Z,98721.56
2023-10-26T13:07:37.610Z,98720.13
2023-10-26T13:10:40.198Z,98725.13
2023-10-26T13:13:42.924Z,98729.00
2023-10-26T13:16:57.159Z,98739.19
2023-10-26T13:20:01.077Z,98738.75
2023-10-26T13:23:03.539Z,98735.44
2023-10-26T13:26:05.949Z,98740.84
2023-10-26T13:29:08.420Z,98745.78
2023-10-26T13:32:13.015Z,98756.97
2023-10-26T13:35:15.509Z,98750.47
2023-10-26T13:38:17.890Z,98751.78
2023-10-26T13:41:24.488Z,98745.25
2023-10-26T13:44:26.974Z,98748.53
2023-10-26T13:47:29.401Z,98751.03
2023-10-26T13:50:31.826Z,98749.25
2023-10-26T13:53:34.261Z,98750.94
2023-10-26T13:56:36.684Z,98746.22
2023-10-26T13:59:40.460Z,98741.78
2023-10-26T14:02:43.121Z,98750.16
2023-10-26T14:05:52.739Z,98753.41
2023-10-26T14:08:59.272Z,98739.44
2023-10-26T14:12:04.470Z,98739.53
2023-10-26T14:15:07.394Z,98741.78
2023-10-26T14:18:09.974Z,98743.44
2023-10-26T14:21:12.432Z,98750.97
2023-10-26T14:24:14.865Z,98754.41
2023-10-26T14:27:17.289Z,98751.59
2023-10-26T14:30:19.965Z,98756.28
2023-10-26T14:33:22.799Z,98752.41
2023-10-26T14:36:25.208Z,98752.03
2023-10-26T14:39:28.394Z,98754.06
2023-10-26T14:42:30.934Z,98747.41
2023-10-26T14:45:36.179Z,98755.28
2023-10-26T14:48:39.217Z,98760.47
2023-10-26T14:51:45.659Z,98758.91
2023-10-26T14:54:48.196Z,98756.97
2023-10-26T14:57:51.028Z,98768.75
2023-10-26T15:00:53.802Z,98766.00
2023-10-26T15:03:56.935Z,98771.94
2023-10-26T15:07:01.282Z,98761.41
2023-10-26T15:10:20.769Z,98772.06
2023-10-26T15:13:26.506Z,98777.91
2023-10-26T15:16:29.148Z,98779.13
2023-10-26T15:19:34.071Z,98790.50
2023-10-26T15:22:36.460Z,98776.84
2023-10-26T15:25:38.953Z,98790.16
2023-10-26T15:28:41.408Z,98796.41
2023-10-26T15:31:48.251Z,98791.72
2023-10-26T15:34:50.720Z,98807.38
2023-10-26T15:37:53.311Z,98814.78
2023-10-26T15:41:05.410Z,98820.63
2023-10-26T15:44:07.808Z,98833.91
2023-10-26T15:47:10.341Z,98821.41
2023-10-26T15:50:12.908Z,98823.34
2023-10-26T15:53:15.424Z,98843.22
2023-10-26T15:56:17.849Z,98849.09
2023-10-26T15:59:20.316Z,98841.25
2023-10-26T16:02:22.925Z,98851.00
2023-10-26T16:05:25.425Z,98848.63
2023-10-26T16:08:27.804Z,98858.34
2023-10-26T16:11:30.236Z,98853.63
2023-10-26T16:14:32.624Z,98848.19
2023-10-26T16:17:37.798Z,98851.19
2023-10-26T16:20:40.297Z,98846.50
2023-10-26T16:23:43.423Z,98851.22
2023-10-26T16:26:45.900Z,98846.28
2023-10-26T16:29:48.969Z,98848.59
2023-10-26T16:32:51.406Z,98834.53
2023-10-26T16:35:59.001Z,98842.66
2023-10-26T16:39:01.400Z,98852.44
2023-10-26T16:42:04.114Z,98853.97
2023-10-26T16:45:06.830Z,98852.41
2023-10-26T16:48:09.241Z,98855.88
2023-10-26T16:51:11.712Z,98856.25
2023-10-26T16:54:14.203Z,98860.13
2023-10-26T16:57:16.783Z,98860.03
2023-10-26T17:00:19.672Z,98862.63
2023-10-26T17:03:22.334Z,98862.50
2023-10-26T17:06:25.057Z,98863.22
2023-10-26T17:09:28.691Z,98862.66
2023-10-26T17:12:31.385Z,98865.38
2023-10-26T17:15:33.801Z,98865.03
2023-10-26T17:18:36.443Z,98856.09
2023-10-26T17:21:38.910Z,98861.44
2023-10-26T17:24:42.034Z,98855.56
2023-10-26T17:27:44.504Z,98854.91
2023-10-26T17:30:47.243Z,98853.53
2023-10-26T17:33:50.204Z,98858.19
2023-10-26T17:36:55.821Z,98852.47
2023-10-26T17:39:58.341Z,98854.16
2023-10-26T17:43:01.490Z,98850.94
2023-10-26T17:46:04.459Z,98847.63
2023-10-26T17:49:07.807Z,98846.44
2023-10-26T17:52:10.292Z,98855.00
2023-10-26T17:55:14.637Z,98844.84
2023-10-26T17:58:17.275Z,98843.56
2023-10-26T18:01:20.972Z,98838.09
2023-10-26T18:04:23.783Z,98831.91
2023-10-26T18:07:26.509Z,98834.69
2023-10-26T18:10:30.229Z,98834.22
2023-10-26T18:13:34.353Z,98835.31
2023-10-26T18:16:36.992Z,98837.72
2023-10-26T18:19:39.515Z,98833.81
2023-10-26T18:22:42.008Z,98822.06
2023-10-26T18:25:44.637Z,98824.47
2023-10-26T18:28:47.414Z,98816.91
2023-10-26T18:31:49.959Z,98812.75
2023-10-26T18:34:52.722Z,98813.13
2023-10-26T18:37:56.429Z,98821.75
2023-10-26T18:41:00.112Z,98819.44
2023-10-26T18:44:02.596Z,98817.41
2023-10-26T18:47:05.540Z,98814.34
2023-10-26T18:50:08.246Z,98811.69
2023-10-26T18:53:10.709Z,98825.69
2023-10-26T18:56:15.313Z,98833.94
2023-10-26T18:59:17.723Z,98824.53
2023-10-26T19:02:20.375Z,98834.69
2023-10-26T19:05:22.768Z,98833.13
2023-10-26T19:08:25.179Z,98825.03
2023-10-26T19:11:29.057Z,98818.41
2023-10-26T19:14:32.998Z,98833.19
2023-10-26T19:17:35.428Z,98838.69
2023-10-26T19:20:43.949Z,98833.63
2023-10-26T19:23:46.723Z,98825.03
2023-10-26T19:26:49.239Z,98826.22
2023-10-26T19:29:51.696Z,98817.28
2023-10-26T19:32:54.314Z,98811.03
2023-10-26T19:35:57.096Z,98804.38
2023-10-26T19:38:59.861Z,98797.69
2023-10-26T19:42:02.526Z,98799.63
2023-10-26T19:45:06.782Z,98800.69
2023-10-26T19:48:09.526Z,98804.22
2023-10-26T19:51:12.824Z,98807.34
2023-10-26T19:54:15.282Z,98806.56
2023-10-26T19:57:19.009Z,98818.19
2023-10-26T20:00:21.663Z,98818.69
2023-10-26T20:03:24.312Z,98817.19
2023-10-26T20:06:27.305Z,98816.06
2023-10-26T20:09:30.816Z,98812.47
2023-10-26T20:12:33.454Z,98808.13
2023-10-26T20:15:36.653Z,98827.25
2023-10-26T20:18:40.238Z,98846.44
2023-10-26T20:21:43.006Z,98835.94
2023-10-26T20:24:49.030Z,98828.53
2023-10-26T20:27:51.632Z,98834.78
2023-10-26T20:30:55.252Z,98829.28
2023-10-26T20:33:59.205Z,98831.22
2023-10-26T20:37:02.886Z,98804.28
2023-10-26T20:40:06.179Z,98798.41
2023-10-26T20:43:09.415Z,98792.53
2023-10-26T20:46:12.942Z,98783.22
2023-10-26T20:49:15.709Z,98787.78
2023-10-26T20:52:18.200Z,98796.06
2023-10-26T20:55:20.716Z,98776.88
2023-10-26T20:58:23.191Z,98801.13
2023-10-26T21:01:25.833Z,98806.56
2023-10-26T21:04:28.263Z,98798.00
2023-10-26T21:07:30.662Z,98780.44
2023-10-26T21:10:35.999Z,98766.78
2023-10-26T21:13:38.575Z,98758.16
2023-10-26T21:16:43.320Z,98763.19
2023-10-26T21:19:46.052Z,98759.34
2023-10-26T21:22:48.582Z,98765.63
2023-10-26T21:25:50.996Z,98766.84
2023-10-26T21:28:55.427Z,98764.13
2023-10-26T21:31:58.024Z,98764.44
2023-10-26T21:35:00.594Z,98759.63
2023-10-26T21:38:03.988Z,98764.53
2023-10-26T21:41:06.708Z,98752.09
2023-10-26T21:44:09.176Z,98741.19
2023-10-26T21:47:11.646Z,98734.25
2023-10-26T21:50:14.202Z,98720.25
2023-10-26T21:53:18.020Z,98729.44
2023-10-26T21:56:20.670Z,98718.91
2023-10-26T21:59:23.109Z,98719.72
2023-10-26T22:02:26.178Z,98704.16
2023-10-26T22:05:29.239Z,98690.47
2023-10-26T22:08:31.656Z,98690.44
2023-10-26T22:11:34.131Z,98697.00
2023-10-26T22:14:36.544Z,98705.47
2023-10-26T22:17:39.352Z,98698.97
2023-10-26T22:20:41.806Z,98692.28
2023-10-26T22:23:44.204Z,98697.72
2023-10-26T22:26:46.673Z,98697.00
2023-10-26T22:29:49.143Z,98703.56
2023-10-26T22:32:51.577Z,98703.97
2023-10-26T22:35:54.554Z,98710.19
2023-10-26T22:38:57.059Z,98705.78
2023-10-26T22:41:59.480Z,98698.38
2023-10-26T22:45:02.621Z,98690.69
2023-10-26T22:48:05.440Z,98690.72
2023-10-26T22:51:07.838Z,98687.22
2023-10-26T22:54:10.273Z,98683.59
2023-10-26T22:57:12.707Z,98677.72
2023-10-26T23:00:15.416Z,98671.88
2023-10-26T23:03:17.909Z,98672.66
2023-10-26T23:06:20.668Z,98676.47
2023-10-26T23:09:23.127Z,98680.03
2023-10-26T23:12:25.702Z,98684.47
2023-10-26T23:15:28.170Z,98680.41
2023-10-26T23:18:30.622Z,98687.72
2023-10-26T23:21:33.565Z,98682.66
2023-10-26T23:24:39.805Z,98685.84
2023-10-26T23:27:42.219Z,98686.19
2023-10-26T23:30:44.675Z,98683.16
2023-10-26T23:33:47.668Z,98698.53
2023-10-26T23:36:50.497Z,98705.19
2023-10-26T23:39:52.945Z,98711.41
2023-10-26T23:42:55.393Z,98706.31
2023-10-26T23:45:59.148Z,98709.94
2023-10-26T23:49:01.669Z,98709.28
2023-10-26T23:52:04.318Z,98706.16
2023-10-26T23:55:07.311Z,98709.75
2023-10-26T23:58:09.957Z,98707.81
